Time;durP1;ratioP1;P1;durP2;ratioP2;P2;SDS_P1;SDS_P2;PMS_P1;PMS_P2;Temp;Humidity;BMP_temperature;BMP_pressure;BME280_temperature;BME280_humidity;BME280_pressure;Samples;Min_cycle;Max_cycle;Signal;HPM_P1;HPM_P2
2022/11/07 00:02:04;;;;;;;24.42;3.33;;;12.20;99.90;;;;;;5066867;28;20586;-73
2022/11/07 00:04:31;;;;;;;27.80;4.03;;;12.30;99.90;;;;;;5048304;28;20667;-73
2022/11/07 00:06:57;;;;;;;24.55;3.53;;;12.30;99.90;;;;;;5066754;28;20526;-73
2022/11/07 00:09:23;;;;;;;26.10;3.60;;;12.20;99.90;;;;;;5048681;28;20477;-73
2022/11/07 00:11:48;;;;;;;24.67;3.92;;;12.20;99.90;;;;;;5067117;28;20503;-73
2022/11/07 00:14:18;;;;;;;28.65;3.30;;;12.20;99.90;;;;;;5066812;28;20060;-72
2022/11/07 00:16:46;;;;;;;25.55;3.25;;;12.20;99.90;;;;;;5066865;28;20478;-73
2022/11/07 00:19:15;;;;;;;27.05;2.97;;;12.20;99.90;;;;;;5066078;28;20040;-73
2022/11/07 00:21:40;;;;;;;20.63;2.78;;;12.20;99.90;;;;;;5066041;28;20486;-74
2022/11/07 00:24:07;;;;;;;18.52;3.05;;;12.20;99.90;;;;;;5066120;28;20095;-72
2022/11/07 00:26:33;;;;;;;17.48;2.33;;;12.20;99.90;;;;;;5066592;28;20530;-73
2022/11/07 00:28:59;;;;;;;18.95;3.17;;;12.20;99.90;;;;;;5066325;28;20450;-73
2022/11/07 00:31:24;;;;;;;21.83;3.00;;;12.20;99.90;;;;;;5066110;28;20028;-72
2022/11/07 00:33:51;;;;;;;23.92;2.90;;;12.30;99.90;;;;;;5065585;28;20029;-73
2022/11/07 00:36:22;;;;;;;22.75;2.80;;;12.30;99.90;;;;;;5047639;28;20047;-74
2022/11/07 00:38:47;;;;;;;19.77;2.30;;;12.30;99.90;;;;;;5065425;28;20509;-73
2022/11/07 00:41:14;;;;;;;16.52;2.40;;;12.30;99.90;;;;;;5047542;28;20037;-73
2022/11/07 00:43:40;;;;;;;13.82;1.75;;;12.30;99.90;;;;;;5062104;28;20048;-73
2022/11/07 00:46:07;;;;;;;13.43;1.80;;;12.30;99.90;;;;;;5065570;28;20035;-72
2022/11/07 00:48:33;;;;;;;17.75;2.30;;;12.20;99.90;;;;;;5064946;28;20040;-73
2022/11/07 00:51:17;;;;;;;14.95;2.13;;;12.20;99.90;;;;;;5065152;28;20033;-73
2022/11/07 00:53:43;;;;;;;17.30;2.65;;;12.20;99.90;;;;;;5047086;28;20047;-73
2022/11/07 00:56:12;;;;;;;13.05;1.85;;;12.30;99.90;;;;;;5065396;28;20059;-74
2022/11/07 00:58:38;;;;;;;20.55;2.50;;;12.30;99.90;;;;;;5065548;28;20085;-73
2022/11/07 01:01:13;;;;;;;19.20;2.63;;;12.30;99.90;;;;;;5064625;28;20428;-72
2022/11/07 01:06:25;;;;;;;18.88;2.47;;;12.40;99.90;;;;;;5065224;28;20097;-73
2022/11/07 01:08:53;;;;;;;17.55;2.85;;;12.40;99.90;;;;;;5050856;28;20493;-73
2022/11/07 01:11:18;;;;;;;24.27;3.78;;;12.50;99.90;;;;;;5050538;28;20032;-73
2022/11/07 01:13:44;;;;;;;25.38;3.70;;;12.50;99.90;;;;;;5048638;28;20028;-73
2022/11/07 01:16:10;;;;;;;23.75;4.45;;;12.50;99.90;;;;;;5069367;28;20036;-73
2022/11/07 01:18:36;;;;;;;21.52;2.50;;;12.50;99.90;;;;;;5049691;28;20517;-72
2022/11/07 01:21:07;;;;;;;24.98;2.97;;;12.60;99.90;;;;;;5069051;28;20028;-73
2022/11/07 01:23:33;;;;;;;28.27;3.90;;;12.60;99.90;;;;;;5066948;28;20033;-73
2022/11/07 01:26:04;;;;;;;17.85;2.47;;;12.60;99.90;;;;;;5049552;28;20058;-73
2022/11/07 01:28:30;;;;;;;19.48;2.47;;;12.60;99.90;;;;;;5068852;28;20032;-73
2022/11/07 01:30:56;;;;;;;21.45;2.70;;;12.50;99.90;;;;;;5069223;28;20098;-73
2022/11/07 01:33:21;;;;;;;26.45;3.35;;;12.40;99.90;;;;;;5068882;28;20036;-73
2022/11/07 01:35:47;;;;;;;29.88;4.43;;;12.40;99.90;;;;;;5050745;28;20024;-74
2022/11/07 01:38:12;;;;;;;24.95;4.35;;;12.40;99.90;;;;;;5050830;28;20117;-73
2022/11/07 01:41:20;;;;;;;21.95;3.67;;;12.40;99.90;;;;;;5067636;28;20056;-73
2022/11/07 01:43:47;;;;;;;24.17;2.92;;;12.40;99.90;;;;;;5067817;28;20041;-73
2022/11/07 01:46:14;;;;;;;28.80;3.90;;;12.40;99.90;;;;;;5049659;28;20040;-73
2022/11/07 01:48:43;;;;;;;23.38;3.25;;;12.50;99.90;;;;;;5064173;28;20044;-74
2022/11/07 01:51:10;;;;;;;29.63;3.28;;;12.40;99.90;;;;;;5050858;28;20354;-73
2022/11/07 01:53:37;;;;;;;24.95;3.45;;;12.50;99.90;;;;;;5068585;28;20036;-72
2022/11/07 01:56:07;;;;;;;24.88;4.00;;;12.50;99.90;;;;;;5068732;28;20032;-73
2022/11/07 01:58:33;;;;;;;23.05;3.10;;;12.50;99.90;;;;;;5068923;28;20035;-72
2022/11/07 02:00:59;;;;;;;24.20;3.00;;;12.60;99.90;;;;;;5068211;28;20029;-73
2022/11/07 02:03:24;;;;;;;22.65;3.17;;;12.60;99.90;;;;;;5050373;28;20041;-72
2022/11/07 02:06:00;;;;;;;18.15;3.28;;;12.60;99.90;;;;;;5050444;28;20115;-72
2022/11/07 02:08:28;;;;;;;21.17;3.00;;;12.60;99.90;;;;;;5068490;28;20047;-71
2022/11/07 02:10:56;;;;;;;18.50;3.13;;;12.60;99.90;;;;;;5067789;28;20111;-72
2022/11/07 02:13:26;;;;;;;18.65;2.70;;;12.70;99.90;;;;;;5067985;28;20051;-72
2022/11/07 02:15:52;;;;;;;18.10;2.75;;;12.70;99.90;;;;;;5067709;28;20032;-72
2022/11/07 02:18:19;;;;;;;19.48;3.20;;;12.70;99.90;;;;;;5068540;28;20051;-72
2022/11/07 02:20:45;;;;;;;19.20;3.00;;;12.70;99.90;;;;;;5050195;28;20527;-71
2022/11/07 02:23:23;;;;;;;17.73;2.92;;;12.70;99.90;;;;;;5050124;28;20394;-72
2022/11/07 02:25:49;;;;;;;22.48;3.03;;;12.70;99.90;;;;;;5064530;28;20073;-71
2022/11/07 02:28:15;;;;;;;27.02;4.00;;;12.80;99.90;;;;;;5068437;28;20037;-72
2022/11/07 02:30:41;;;;;;;28.70;4.20;;;12.70;99.90;;;;;;5049845;28;20024;-72
2022/11/07 02:33:21;;;;;;;27.27;3.78;;;12.80;99.90;;;;;;5067753;28;20039;-72
2022/11/07 02:35:48;;;;;;;30.77;4.30;;;12.70;99.90;;;;;;5065423;28;20599;-72
2022/11/07 02:38:29;;;;;;;36.22;4.38;;;12.80;99.90;;;;;;5067676;28;20056;-71
2022/11/07 02:41:15;;;;;;;27.90;3.92;;;12.80;99.90;;;;;;5064675;28;20085;-72
2022/11/07 02:43:48;;;;;;;28.52;4.22;;;12.80;99.90;;;;;;5067277;28;20032;-72
2022/11/07 02:46:15;;;;;;;24.83;3.83;;;12.80;99.90;;;;;;5068006;28;20036;-72
2022/11/07 02:48:49;;;;;;;37.13;4.95;;;12.80;99.90;;;;;;5067418;28;20032;-72
2022/11/07 02:51:15;;;;;;;35.20;4.68;;;12.80;99.90;;;;;;5067293;28;20028;-72
2022/11/07 02:53:41;;;;;;;26.88;4.15;;;12.90;99.90;;;;;;5067456;28;20094;-71
2022/11/07 02:56:07;;;;;;;22.45;3.42;;;12.90;99.90;;;;;;5068297;28;20044;-72
2022/11/07 02:58:34;;;;;;;20.52;3.83;;;13.00;99.90;;;;;;5067381;28;20040;-72
2022/11/07 03:01:05;;;;;;;22.67;3.97;;;13.00;99.90;;;;;;5066691;28;20040;-72
2022/11/07 03:03:33;;;;;;;28.33;4.70;;;13.00;99.90;;;;;;5066484;28;20035;-72
2022/11/07 03:05:59;;;;;;;23.40;3.50;;;13.00;99.90;;;;;;5067192;28;20052;-72
2022/11/07 03:08:24;;;;;;;23.17;3.55;;;13.00;99.90;;;;;;5044433;28;20056;-71
2022/11/07 03:10:50;;;;;;;25.35;3.85;;;13.00;99.90;;;;;;5066319;28;20017;-71
2022/11/07 03:13:15;;;;;;;20.95;3.65;;;12.90;99.90;;;;;;5066763;28;20063;-72
2022/11/07 03:15:41;;;;;;;19.83;3.55;;;13.00;99.90;;;;;;5066901;28;20038;-72
2022/11/07 03:18:06;;;;;;;21.80;4.07;;;13.00;99.90;;;;;;5066533;28;20036;-71
2022/11/07 03:20:32;;;;;;;28.48;4.22;;;13.10;99.90;;;;;;5049011;28;20037;-72
2022/11/07 03:22:57;;;;;;;25.05;3.50;;;13.10;99.90;;;;;;5066765;28;20547;-73
2022/11/07 03:25:23;;;;;;;26.67;3.90;;;13.10;99.90;;;;;;5066714;28;20036;-71
2022/11/07 03:27:49;;;;;;;17.73;3.15;;;13.20;99.90;;;;;;5066484;28;20031;-72
2022/11/07 03:30:15;;;;;;;21.08;3.40;;;13.20;99.90;;;;;;5066032;28;20036;-73
2022/11/07 03:32:41;;;;;;;19.88;3.03;;;13.20;99.90;;;;;;5066654;28;20110;-72
2022/11/07 03:35:08;;;;;;;22.35;4.05;;;13.30;99.90;;;;;;5066942;28;20036;-72
2022/11/07 03:37:33;;;;;;;23.58;3.95;;;13.20;99.90;;;;;;5066690;28;20028;-72
2022/11/07 03:39:59;;;;;;;29.30;4.20;;;13.20;99.90;;;;;;5066464;28;20047;-72
2022/11/07 03:42:25;;;;;;;24.40;3.67;;;13.20;99.90;;;;;;5052909;28;20037;-71
2022/11/07 03:44:50;;;;;;;23.40;3.90;;;13.30;99.90;;;;;;5066761;28;20036;-71
2022/11/07 03:47:16;;;;;;;23.90;4.10;;;13.20;99.90;;;;;;5066848;28;20131;-72
2022/11/07 03:49:41;;;;;;;21.02;3.60;;;13.20;99.90;;;;;;5067445;28;20438;-72
2022/11/07 03:52:07;;;;;;;24.25;3.63;;;13.10;99.90;;;;;;5048904;28;20048;-71
2022/11/07 03:54:32;;;;;;;24.08;3.50;;;13.10;99.90;;;;;;5066878;28;20757;-73
2022/11/07 03:56:58;;;;;;;27.17;4.22;;;13.20;99.90;;;;;;5066763;28;20025;-72
2022/11/07 03:59:24;;;;;;;31.52;4.57;;;13.20;99.90;;;;;;5065359;28;20032;-72
2022/11/07 04:01:50;;;;;;;26.75;4.55;;;13.20;99.90;;;;;;5066836;28;20451;-72
2022/11/07 04:04:16;;;;;;;30.27;4.05;;;13.30;99.90;;;;;;5067238;28;20090;-72
2022/11/07 04:06:42;;;;;;;25.17;3.15;;;13.40;99.90;;;;;;5065384;28;20028;-72
2022/11/07 04:09:08;;;;;;;25.20;3.78;;;13.30;99.90;;;;;;5066638;28;20043;-72
2022/11/07 04:17:17;;;;;;;25.67;4.03;;;13.30;99.90;;;;;;5066724;28;20051;-73
2022/11/07 04:19:43;;;;;;;29.40;3.85;;;13.20;99.90;;;;;;5066547;28;20497;-72
2022/11/07 04:22:09;;;;;;;25.80;3.65;;;13.10;99.90;;;;;;5048498;28;20071;-73
2022/11/07 04:24:34;;;;;;;26.67;3.67;;;13.10;99.90;;;;;;5066311;28;20044;-73
2022/11/07 04:29:44;;;;;;;27.05;3.63;;;13.10;99.90;;;;;;5065655;28;20094;-73
2022/11/07 04:32:10;;;;;;;26.70;4.25;;;13.00;99.90;;;;;;5065438;28;20028;-73
2022/11/07 04:34:35;;;;;;;31.15;4.47;;;13.00;99.90;;;;;;5065689;28;20036;-73
2022/11/07 04:37:01;;;;;;;25.48;3.60;;;13.00;99.90;;;;;;5065813;28;20029;-73
2022/11/07 04:39:27;;;;;;;31.45;5.15;;;13.00;99.90;;;;;;5065363;28;20039;-73
2022/11/07 04:41:53;;;;;;;25.80;3.80;;;13.00;99.90;;;;;;5065645;28;20040;-73
2022/11/07 04:44:19;;;;;;;37.80;4.95;;;13.00;99.90;;;;;;5069382;28;20437;-72
2022/11/07 04:46:44;;;;;;;30.20;4.00;;;13.00;99.90;;;;;;5070149;28;20092;-73
2022/11/07 04:49:13;;;;;;;35.50;4.90;;;13.00;99.90;;;;;;5069460;28;20096;-73
2022/11/07 04:51:43;;;;;;;30.15;4.45;;;13.00;99.90;;;;;;5050299;28;20497;-72
2022/11/07 04:54:15;;;;;;;29.95;4.70;;;13.00;99.90;;;;;;5069323;28;20564;-73
2022/11/07 04:56:41;;;;;;;29.27;4.47;;;13.00;99.90;;;;;;5051179;28;20032;-72
2022/11/07 04:59:06;;;;;;;27.00;4.10;;;12.90;99.90;;;;;;5050720;28;20040;-73
2022/11/07 05:01:32;;;;;;;28.30;4.85;;;12.90;99.90;;;;;;5068731;28;20032;-73
2022/11/07 05:03:58;;;;;;;27.80;3.92;;;13.00;99.90;;;;;;5069145;28;20032;-72
2022/11/07 05:06:24;;;;;;;19.83;3.55;;;13.00;99.90;;;;;;5070003;28;20033;-72
2022/11/07 05:08:49;;;;;;;30.27;3.80;;;13.00;99.90;;;;;;5069008;28;20028;-72
2022/11/07 05:11:15;;;;;;;24.67;4.00;;;13.00;99.90;;;;;;5069749;28;20052;-72
2022/11/07 05:13:41;;;;;;;26.90;4.28;;;13.10;99.90;;;;;;5050505;28;20489;-73
2022/11/07 05:16:13;;;;;;;27.27;3.55;;;13.10;99.90;;;;;;5050773;28;20094;-72
2022/11/07 05:18:39;;;;;;;28.25;4.20;;;13.10;99.90;;;;;;5069705;28;20068;-72
2022/11/07 05:21:05;;;;;;;28.13;4.22;;;13.10;99.90;;;;;;5069734;28;20495;-73
2022/11/07 05:23:30;;;;;;;27.17;4.15;;;13.20;99.90;;;;;;5051525;28;20039;-72
2022/11/07 05:25:56;;;;;;;31.13;4.32;;;13.20;99.90;;;;;;5069337;28;20493;-73
2022/11/07 05:28:30;;;;;;;37.17;4.28;;;13.30;99.90;;;;;;5050570;28;20094;-71
2022/11/07 05:31:01;;;;;;;31.08;4.07;;;13.30;99.90;;;;;;5069681;28;20102;-71
2022/11/07 05:33:27;;;;;;;28.13;4.30;;;13.30;99.90;;;;;;5069446;28;20609;-72
2022/11/07 05:35:52;;;;;;;32.60;4.65;;;13.30;99.90;;;;;;5069655;28;20056;-71
2022/11/07 05:38:18;;;;;;;37.22;4.63;;;13.20;99.90;;;;;;5069542;28;20075;-71
2022/11/07 05:40:44;;;;;;;24.55;3.80;;;13.30;99.90;;;;;;5069077;28;20135;-71
2022/11/07 05:43:12;;;;;;;28.50;4.25;;;13.30;99.90;;;;;;5068699;28;20085;-72
2022/11/07 05:45:39;;;;;;;30.13;4.57;;;13.20;99.90;;;;;;5069358;28;20111;-74
2022/11/07 05:48:07;;;;;;;29.05;5.07;;;13.20;99.90;;;;;;5069053;28;20020;-71
2022/11/07 05:50:33;;;;;;;23.80;3.88;;;13.30;99.90;;;;;;5068764;28;20044;-71
2022/11/07 05:52:58;;;;;;;26.58;4.07;;;13.30;99.90;;;;;;5049837;28;20036;-74
2022/11/07 05:55:25;;;;;;;31.70;5.00;;;13.30;99.90;;;;;;5068528;28;20032;-73
2022/11/07 05:57:51;;;;;;;34.30;4.63;;;13.30;99.90;;;;;;5050187;28;20035;-72
2022/11/07 06:00:17;;;;;;;36.15;4.68;;;13.30;99.90;;;;;;5068656;28;20051;-72
2022/11/07 06:02:44;;;;;;;40.00;4.35;;;13.30;99.90;;;;;;5049999;28;20028;-72
2022/11/07 06:05:10;;;;;;;28.50;4.15;;;13.30;99.90;;;;;;5049104;28;20044;-72
2022/11/07 06:07:38;;;;;;;35.13;4.72;;;13.30;99.90;;;;;;5067164;28;20037;-72
2022/11/07 06:10:05;;;;;;;26.30;4.28;;;13.30;99.90;;;;;;5049634;28;20060;-73
2022/11/07 06:12:30;;;;;;;26.60;4.80;;;13.30;99.90;;;;;;5068050;28;20032;-73
2022/11/07 06:14:56;;;;;;;31.00;4.78;;;13.30;99.90;;;;;;5068693;28;20035;-73
2022/11/07 06:17:21;;;;;;;26.55;4.43;;;13.30;99.90;;;;;;5068713;28;20033;-72
2022/11/07 06:19:47;;;;;;;31.27;5.35;;;13.30;99.90;;;;;;5068017;28;20551;-73
2022/11/07 06:22:12;;;;;;;22.30;4.63;;;13.30;99.90;;;;;;5068028;28;20040;-73
2022/11/07 06:24:38;;;;;;;17.23;2.85;;;13.20;99.90;;;;;;5067771;28;20059;-72
2022/11/07 06:27:03;;;;;;;23.30;3.05;;;13.00;99.90;;;;;;5068233;28;20033;-72
2022/11/07 06:29:29;;;;;;;25.30;3.28;;;12.80;99.90;;;;;;5067591;28;20037;-72
2022/11/07 06:31:55;;;;;;;18.23;3.00;;;12.80;99.90;;;;;;5067556;28;20103;-73
2022/11/07 06:34:20;;;;;;;31.67;4.03;;;12.70;99.90;;;;;;5049847;28;20039;-72
2022/11/07 06:36:46;;;;;;;21.77;3.30;;;12.70;99.90;;;;;;5067339;28;20111;-72
2022/11/07 06:39:11;;;;;;;26.13;3.38;;;12.70;99.90;;;;;;5066767;28;20032;-72
2022/11/07 06:41:37;;;;;;;26.80;3.78;;;12.70;99.90;;;;;;5049468;28;20123;-73
2022/11/07 06:44:03;;;;;;;20.80;3.25;;;12.80;99.90;;;;;;5067652;28;20709;-72
2022/11/07 06:46:28;;;;;;;21.73;3.25;;;12.80;99.90;;;;;;5049524;28;20095;-73
2022/11/07 06:48:54;;;;;;;30.55;5.47;;;12.80;99.90;;;;;;5052172;28;20040;-73
2022/11/07 06:51:19;;;;;;;22.92;2.90;;;12.90;99.90;;;;;;5048407;28;20028;-73
2022/11/07 06:53:45;;;;;;;23.77;3.80;;;13.00;99.90;;;;;;5066685;28;20041;-73
2022/11/07 06:56:14;;;;;;;28.30;4.28;;;13.00;99.90;;;;;;5067096;28;20036;-72
2022/11/07 06:58:40;;;;;;;21.45;2.90;;;13.00;99.90;;;;;;5067147;28;20045;-71
2022/11/07 07:01:08;;;;;;;23.25;3.05;;;13.10;99.90;;;;;;5048857;28;20036;-73
2022/11/07 07:03:34;;;;;;;27.88;2.95;;;13.10;99.90;;;;;;5066135;28;20024;-72
2022/11/07 07:06:01;;;;;;;20.77;3.03;;;13.00;99.90;;;;;;5066631;28;20391;-72
2022/11/07 07:08:27;;;;;;;23.08;3.30;;;13.00;99.90;;;;;;5066208;28;20064;-72
2022/11/07 07:10:53;;;;;;;24.80;3.30;;;13.10;99.90;;;;;;5067314;28;20040;-74
2022/11/07 07:13:19;;;;;;;27.88;3.72;;;13.10;99.90;;;;;;5059215;28;20090;-73
2022/11/07 07:15:54;;;;;;;23.02;2.88;;;13.10;99.90;;;;;;5066152;28;20060;-73
2022/11/07 07:18:20;;;;;;;26.52;3.33;;;13.10;99.90;;;;;;5047375;28;20054;-72
2022/11/07 07:20:47;;;;;;;27.70;3.53;;;13.10;99.90;;;;;;5062975;28;21123;-72
2022/11/07 07:23:13;;;;;;;29.77;3.88;;;13.10;99.90;;;;;;5064557;28;20024;-72
2022/11/07 07:25:38;;;;;;;25.83;4.60;;;13.20;99.90;;;;;;5064446;28;20093;-73
2022/11/07 07:28:04;;;;;;;26.20;4.28;;;13.20;99.90;;;;;;5064358;28;20094;-73
2022/11/07 07:30:29;;;;;;;25.50;3.53;;;13.20;99.90;;;;;;5072063;28;20374;-72
2022/11/07 07:32:55;;;;;;;25.95;3.95;;;13.20;99.90;;;;;;5051959;28;20043;-73
2022/11/07 07:35:21;;;;;;;28.30;4.43;;;13.30;99.90;;;;;;5073971;28;20036;-72
2022/11/07 07:37:50;;;;;;;24.65;4.25;;;13.30;99.90;;;;;;5045902;28;20060;-72
2022/11/07 07:40:16;;;;;;;24.08;4.60;;;13.30;99.90;;;;;;5062745;28;20036;-72
2022/11/07 07:42:43;;;;;;;27.10;3.95;;;13.30;99.90;;;;;;5067184;28;20546;-73
2022/11/07 07:45:12;;;;;;;28.10;3.88;;;13.30;99.90;;;;;;5065373;28;20036;-72
2022/11/07 07:47:38;;;;;;;27.33;4.00;;;13.40;99.90;;;;;;5067031;28;20032;-72
2022/11/07 07:50:06;;;;;;;30.75;4.47;;;13.40;99.90;;;;;;5072525;28;20031;-72
2022/11/07 07:52:32;;;;;;;35.70;4.45;;;13.40;99.90;;;;;;5045500;28;20139;-72
2022/11/07 07:54:57;;;;;;;20.80;4.15;;;13.40;99.90;;;;;;5077090;28;20114;-73
2022/11/07 07:57:23;;;;;;;30.65;3.65;;;13.40;99.90;;;;;;5072795;28;20033;-72
2022/11/07 07:59:48;;;;;;;27.30;4.40;;;13.50;99.90;;;;;;5049629;28;20120;-73
2022/11/07 08:02:14;;;;;;;27.40;3.50;;;13.50;99.90;;;;;;5062810;28;20035;-74
2022/11/07 08:04:40;;;;;;;25.63;3.33;;;13.50;99.90;;;;;;5046860;28;20068;-73
2022/11/07 08:07:06;;;;;;;30.27;3.90;;;13.50;99.90;;;;;;5066926;28;20043;-73
2022/11/07 08:09:35;;;;;;;24.75;3.75;;;13.50;99.90;;;;;;5064435;28;20063;-72
2022/11/07 08:12:02;;;;;;;26.83;3.72;;;13.50;99.90;;;;;;5062279;28;20111;-72
2022/11/07 08:14:28;;;;;;;32.55;4.40;;;13.50;99.90;;;;;;5048327;28;20556;-74
2022/11/07 08:16:53;;;;;;;35.90;4.75;;;13.50;99.90;;;;;;5065691;28;20045;-72
2022/11/07 08:19:19;;;;;;;36.15;4.90;;;13.50;99.90;;;;;;5068964;28;20461;-72
2022/11/07 08:21:44;;;;;;;31.20;3.80;;;13.50;99.90;;;;;;5070831;28;20036;-72
2022/11/07 08:24:10;;;;;;;29.67;4.40;;;13.50;99.90;;;;;;5069418;28;20054;-72
2022/11/07 08:26:36;;;;;;;31.20;4.82;;;13.50;99.90;;;;;;5070546;28;20040;-71
2022/11/07 08:29:02;;;;;;;24.77;4.32;;;13.50;99.90;;;;;;5052166;28;20059;-71
2022/11/07 08:31:28;;;;;;;28.05;4.03;;;13.50;99.90;;;;;;5071148;28;20036;-73
2022/11/07 08:33:59;;;;;;;19.52;3.17;;;13.50;99.90;;;;;;5070406;28;20036;-72
2022/11/07 08:36:26;;;;;;;25.00;3.72;;;13.50;99.90;;;;;;5052876;28;20035;-74
2022/11/07 08:38:51;;;;;;;29.65;4.07;;;13.60;99.90;;;;;;5052768;28;20028;-73
2022/11/07 08:41:18;;;;;;;26.52;3.70;;;13.60;99.90;;;;;;5070776;28;20041;-72
2022/11/07 08:43:44;;;;;;;24.70;3.70;;;13.60;99.90;;;;;;5052567;28;20486;-72
2022/11/07 08:46:09;;;;;;;33.38;5.30;;;13.60;99.90;;;;;;5070505;28;20028;-72
2022/11/07 08:48:35;;;;;;;29.92;4.43;;;13.60;99.90;;;;;;5052359;28;20081;-72
2022/11/07 08:51:03;;;;;;;34.28;5.25;;;13.60;99.90;;;;;;5052795;28;20464;-72
2022/11/07 08:53:29;;;;;;;28.33;4.63;;;13.60;99.90;;;;;;5070673;28;20147;-73
2022/11/07 08:56:06;;;;;;;28.23;3.97;;;13.60;99.90;;;;;;5070333;28;20207;-72
2022/11/07 08:58:32;;;;;;;24.02;4.97;;;13.70;99.90;;;;;;5067553;28;20509;-71
2022/11/07 09:00:58;;;;;;;36.75;4.63;;;13.70;99.90;;;;;;5070374;28;20041;-71
2022/11/07 09:03:24;;;;;;;33.78;5.20;;;13.70;99.90;;;;;;5070633;28;20041;-73
2022/11/07 09:05:50;;;;;;;34.75;5.68;;;13.70;99.90;;;;;;5052016;28;20044;-72
2022/11/07 09:08:16;;;;;;;27.52;4.20;;;13.70;99.90;;;;;;5051707;28;20033;-72
2022/11/07 09:10:42;;;;;;;23.30;3.78;;;13.60;99.90;;;;;;5052028;28;20494;-71
2022/11/07 09:13:08;;;;;;;31.88;4.22;;;13.60;99.90;;;;;;5069838;28;20028;-72
2022/11/07 09:15:33;;;;;;;26.83;3.70;;;13.60;99.90;;;;;;5070203;28;20029;-72
2022/11/07 09:18:05;;;;;;;31.20;4.47;;;13.70;99.90;;;;;;5070137;28;20032;-74
2022/11/07 09:20:32;;;;;;;24.05;4.47;;;13.70;99.90;;;;;;5069882;28;20462;-71
2022/11/07 09:22:58;;;;;;;20.80;3.28;;;13.70;99.90;;;;;;5070096;28;20033;-72
2022/11/07 09:25:24;;;;;;;16.15;2.38;;;13.70;99.90;;;;;;5070092;28;20103;-72
2022/11/07 09:27:50;;;;;;;25.90;3.92;;;13.70;99.90;;;;;;5050737;28;20093;-72
2022/11/07 09:30:17;;;;;;;24.02;3.63;;;13.70;99.90;;;;;;5069756;28;20590;-73
2022/11/07 09:32:43;;;;;;;21.02;2.90;;;13.70;99.90;;;;;;5069996;28;20474;-71
2022/11/07 09:35:09;;;;;;;16.50;2.70;;;13.70;99.90;;;;;;5069576;28;20032;-74
2022/11/07 09:37:38;;;;;;;17.83;2.60;;;13.70;99.90;;;;;;5069384;28;20025;-74
2022/11/07 09:40:05;;;;;;;18.50;2.50;;;13.70;99.90;;;;;;5069082;28;20068;-73
2022/11/07 09:42:59;;;;;;;23.52;3.20;;;13.60;99.90;;;;;;5069099;28;20091;-74
2022/11/07 09:45:28;;;;;;;22.33;2.72;;;13.60;99.90;;;;;;5069284;28;20738;-74
2022/11/07 09:48:04;;;;;;;23.20;2.35;;;13.70;99.90;;;;;;5069134;28;20028;-72
2022/11/07 09:50:39;;;;;;;26.30;3.53;;;13.60;99.90;;;;;;5068838;28;20475;-73
2022/11/07 09:53:16;;;;;;;21.10;3.45;;;13.70;99.90;;;;;;5068758;28;20079;-72
2022/11/07 09:55:50;;;;;;;20.67;2.70;;;13.70;99.90;;;;;;5068660;28;20498;-72
2022/11/07 09:58:30;;;;;;;18.50;3.55;;;13.70;99.90;;;;;;5068326;28;20024;-73
2022/11/07 10:01:05;;;;;;;25.60;3.40;;;13.80;99.90;;;;;;5068663;28;20033;-73
2022/11/07 10:03:33;;;;;;;32.30;3.60;;;13.90;99.90;;;;;;5069128;28;20067;-72
2022/11/07 10:06:14;;;;;;;28.83;4.20;;;14.00;99.90;;;;;;5068911;28;20106;-72
2022/11/07 10:08:44;;;;;;;27.10;5.03;;;14.10;99.90;;;;;;5069071;28;20486;-71
2022/11/07 10:11:26;;;;;;;34.33;4.78;;;14.10;99.90;;;;;;5068265;28;20020;-73
2022/11/07 10:13:55;;;;;;;39.97;5.22;;;14.10;99.90;;;;;;5067840;28;20090;-74
2022/11/07 10:16:50;;;;;;;29.10;5.60;;;14.10;99.90;;;;;;5050807;28;20039;-72
2022/11/07 10:19:35;;;;;;;35.08;4.95;;;14.20;99.90;;;;;;5050372;28;20044;-73
2022/11/07 10:22:16;;;;;;;31.65;4.72;;;14.10;99.90;;;;;;5050109;28;20039;-72
2022/11/07 10:25:23;;;;;;;37.85;4.38;;;14.10;99.90;;;;;;5050445;28;20107;-72
2022/11/07 10:28:00;;;;;;;30.80;4.97;;;14.10;99.90;;;;;;5059236;28;20051;-71
2022/11/07 10:30:25;;;;;;;34.30;4.63;;;14.30;99.90;;;;;;5050234;28;20036;-72
2022/11/07 10:33:10;;;;;;;35.40;4.70;;;14.30;99.90;;;;;;5049322;28;20036;-72
2022/11/07 10:35:42;;;;;;;32.15;4.60;;;14.30;99.90;;;;;;5068438;28;20032;-72
2022/11/07 10:38:24;;;;;;;32.22;4.78;;;14.30;99.90;;;;;;5068296;28;20060;-72
2022/11/07 10:40:50;;;;;;;34.08;4.80;;;14.40;99.90;;;;;;5049950;28;20035;-72
2022/11/07 10:43:32;;;;;;;32.72;4.80;;;14.40;99.90;;;;;;5067901;28;20033;-72
2022/11/07 10:46:02;;;;;;;32.75;4.70;;;14.30;99.90;;;;;;5049021;28;20052;-72
2022/11/07 10:48:32;;;;;;;28.88;4.63;;;14.40;99.90;;;;;;5067146;28;20040;-73
2022/11/07 10:50:57;;;;;;;31.92;5.07;;;14.40;99.90;;;;;;5067669;28;20067;-71
2022/11/07 10:53:25;;;;;;;29.05;4.32;;;14.40;99.90;;;;;;5067705;28;20083;-73
2022/11/07 10:55:52;;;;;;;25.63;4.28;;;14.50;99.90;;;;;;5067718;28;20029;-71
2022/11/07 10:58:28;;;;;;;33.97;4.55;;;14.50;99.90;;;;;;5067740;28;20033;-74
2022/11/07 11:01:08;;;;;;;25.17;3.78;;;14.50;99.90;;;;;;5050067;28;20490;-72
2022/11/07 11:03:45;;;;;;;23.35;3.58;;;14.50;99.90;;;;;;5068162;28;20505;-73
2022/11/07 11:06:17;;;;;;;26.70;4.55;;;14.60;99.90;;;;;;5067670;28;20051;-70
2022/11/07 11:08:44;;;;;;;28.38;4.00;;;14.60;99.90;;;;;;5067582;28;20542;-73
2022/11/07 11:11:33;;;;;;;26.77;3.90;;;14.60;99.90;;;;;;5067903;28;20036;-74
2022/11/07 11:14:11;;;;;;;26.17;4.63;;;14.50;99.90;;;;;;5067855;28;20031;-73
2022/11/07 11:16:38;;;;;;;26.67;4.00;;;14.50;99.90;;;;;;5049829;28;20028;-74
2022/11/07 11:19:06;;;;;;;29.70;4.00;;;14.40;99.90;;;;;;5067921;28;20043;-73
2022/11/07 11:21:40;;;;;;;20.90;3.95;;;14.40;99.90;;;;;;5067353;28;20036;-73
2022/11/07 11:24:24;;;;;;;30.65;4.35;;;14.30;99.90;;;;;;5067068;28;20024;-75
2022/11/07 11:26:52;;;;;;;31.05;4.57;;;14.30;99.90;;;;;;5067505;28;20029;-74
2022/11/07 11:29:39;;;;;;;32.58;4.68;;;14.30;99.90;;;;;;5067605;28;20055;-75
2022/11/07 11:32:11;;;;;;;35.47;4.65;;;14.30;99.90;;;;;;5066539;28;20029;-73
2022/11/07 11:35:00;;;;;;;29.90;4.15;;;14.30;99.90;;;;;;5066717;28;20028;-73
2022/11/07 11:37:26;;;;;;;26.52;3.80;;;14.30;99.90;;;;;;5049408;28;20127;-73
2022/11/07 11:40:16;;;;;;;36.35;4.63;;;14.20;99.90;;;;;;5049006;28;20119;-73
2022/11/07 11:42:51;;;;;;;26.40;4.28;;;14.20;99.90;;;;;;5067398;28;20398;-74
2022/11/07 11:45:23;;;;;;;27.67;4.90;;;14.10;99.90;;;;;;5049053;28;20024;-73
2022/11/07 11:48:04;;;;;;;24.88;4.63;;;14.10;99.90;;;;;;5067124;28;20450;-73
2022/11/07 11:50:44;;;;;;;30.73;4.60;;;14.00;99.90;;;;;;5048454;28;20090;-74
2022/11/07 11:53:18;;;;;;;33.45;5.35;;;14.00;99.90;;;;;;5066404;28;20502;-73
2022/11/07 11:56:08;;;;;;;28.92;4.40;;;14.00;99.90;;;;;;5048443;28;20032;-73
2022/11/07 11:58:52;;;;;;;33.28;5.20;;;14.00;99.90;;;;;;5066633;28;20684;-73
2022/11/07 12:01:28;;;;;;;33.70;5.90;;;14.00;99.90;;;;;;5067235;28;20115;-73
2022/11/07 12:04:12;;;;;;;35.30;4.22;;;14.00;99.90;;;;;;5048850;28;20427;-73
2022/11/07 12:06:42;;;;;;;26.17;4.95;;;14.10;99.90;;;;;;5048605;28;20141;-72
2022/11/07 12:09:21;;;;;;;29.55;4.28;;;14.10;99.90;;;;;;5048135;28;20098;-73
2022/11/07 12:12:18;;;;;;;29.00;3.87;;;14.20;99.90;;;;;;5048698;28;20063;-73
2022/11/07 12:15:30;;;;;;;28.52;4.13;;;14.20;99.90;;;;;;5066603;28;20737;-73
2022/11/07 12:18:13;;;;;;;31.15;4.03;;;14.20;99.90;;;;;;5066159;28;20034;-73
2022/11/07 12:21:08;;;;;;;30.67;4.72;;;14.20;99.90;;;;;;5066684;28;20043;-74
2022/11/07 12:23:52;;;;;;;36.03;5.20;;;14.30;99.90;;;;;;5039721;28;20033;-73
2022/11/07 12:26:25;;;;;;;34.53;4.75;;;14.30;99.90;;;;;;5066651;28;20028;-73
2022/11/07 12:29:21;;;;;;;35.92;5.10;;;14.40;99.90;;;;;;5066160;28;20047;-72
2022/11/07 12:32:03;;;;;;;28.45;4.55;;;14.50;99.90;;;;;;5048856;28;20136;-75
2022/11/07 12:34:40;;;;;;;28.73;4.43;;;14.50;99.90;;;;;;5066872;28;20064;-73
2022/11/07 12:37:21;;;;;;;26.88;4.57;;;14.50;99.90;;;;;;5048086;28;20063;-75
2022/11/07 12:40:16;;;;;;;28.77;4.55;;;14.60;99.90;;;;;;5066268;28;20021;-73
2022/11/07 12:43:10;;;;;;;30.02;5.43;;;14.60;99.90;;;;;;5049555;28;20061;-74
2022/11/07 12:45:45;;;;;;;34.83;3.97;;;14.50;99.90;;;;;;5016952;28;20044;-73
2022/11/07 12:48:25;;;;;;;27.35;4.97;;;14.50;99.90;;;;;;5027954;28;20029;-72
2022/11/07 12:51:02;;;;;;;;;;;14.50;99.90;;;;;;5034474;28;20061;-72
2022/11/07 12:53:53;;;;;;;25.75;4.22;;;14.40;99.90;;;;;;5065982;28;19916;-72
2022/11/07 12:56:28;;;;;;;23.60;3.47;;;14.40;99.90;;;;;;5047583;28;20114;-73
2022/11/07 12:58:54;;;;;;;28.35;4.50;;;14.40;99.90;;;;;;5066221;28;20047;-72
2022/11/07 13:01:27;;;;;;;18.95;3.28;;;14.30;99.90;;;;;;5065908;28;20040;-71
2022/11/07 13:04:09;;;;;;;24.50;3.78;;;14.30;99.90;;;;;;5068393;28;20039;-73